Orienta, Oklahoma
Current Conditions -  °F | °C
As of 2:55 AM on Friday 24 Oct 2014 (Local Time) from KJWG Reporting Station
Clear Clear  
Wind Chill: 62°   Ceiling: Unl
Heat Index: 62°   Visibility: 10mi
Dew Point: 62°   Wind: 5mph
Humidity: 99%   Direction: 180°S
Pressure: 30.09"   Gusts: NA
Location:  36.2837°N, 98.6091°W
Report Text: KJWG 240755Z AUTO 18004KT 10SM CLR 17/17 A3009 RMK AO2 T01670165
Loading
Personal Weather Stations






























Interactive Weather Map New forecast layout! Learn more

10-Day Weather Forecast

Advertisements
Track Severe Weather on mobile